sensor_id;sensor_type;location;lat;lon;timestamp;temperature;humidity
9437;DHT22;4757;59.334;18.034;2023-12-04T00:01:30;-8.10;99.90
9437;DHT22;4757;59.334;18.034;2023-12-04T00:03:58;-7.90;99.90
9437;DHT22;4757;59.334;18.034;2023-12-04T00:06:25;-7.80;99.90
9437;DHT22;4757;59.334;18.034;2023-12-04T00:08:52;-7.80;99.90
9437;DHT22;4757;59.334;18.034;2023-12-04T00:11:20;-8.00;99.90
9437;DHT22;4757;59.334;18.034;2023-12-04T00:13:47;-8.10;99.90
9437;DHT22;4757;59.334;18.034;2023-12-04T00:16:14;-8.20;99.90
9437;DHT22;4757;59.334;18.034;2023-12-04T00:18:41;-8.20;99.90
9437;DHT22;4757;59.334;18.034;2023-12-04T00:21:08;-8.00;99.90
9437;DHT22;4757;59.334;18.034;2023-12-04T00:23:36;-7.90;99.90
9437;DHT22;4757;59.334;18.034;2023-12-04T00:26:03;-7.90;99.90
9437;DHT22;4757;59.334;18.034;2023-12-04T00:28:31;-7.90;99.90
9437;DHT22;4757;59.334;18.034;2023-12-04T00:30:59;-7.90;99.90
9437;DHT22;4757;59.334;18.034;2023-12-04T00:33:26;-7.90;99.90
9437;DHT22;4757;59.334;18.034;2023-12-04T00:35:53;-7.90;99.90
9437;DHT22;4757;59.334;18.034;2023-12-04T00:38:20;-8.00;99.90
9437;DHT22;4757;59.334;18.034;2023-12-04T00:40:47;-7.90;99.90
9437;DHT22;4757;59.334;18.034;2023-12-04T00:43:15;-8.00;99.90
9437;DHT22;4757;59.334;18.034;2023-12-04T00:45:42;-8.00;99.90
9437;DHT22;4757;59.334;18.034;2023-12-04T00:48:09;-8.00;99.90
9437;DHT22;4757;59.334;18.034;2023-12-04T00:50:36;-8.10;99.90
9437;DHT22;4757;59.334;18.034;2023-12-04T00:53:04;-8.10;99.90
9437;DHT22;4757;59.334;18.034;2023-12-04T00:55:31;-8.10;99.90
9437;DHT22;4757;59.334;18.034;2023-12-04T00:57:58;-7.90;99.90
9437;DHT22;4757;59.334;18.034;2023-12-04T01:00:25;-8.00;99.90
9437;DHT22;4757;59.334;18.034;2023-12-04T01:02:52;-8.00;99.90
9437;DHT22;4757;59.334;18.034;2023-12-04T01:05:20;-7.90;99.90
9437;DHT22;4757;59.334;18.034;2023-12-04T01:07:47;-9.30;99.90
9437;DHT22;4757;59.334;18.034;2023-12-04T01:10:14;-7.90;99.90
9437;DHT22;4757;59.334;18.034;2023-12-04T01:12:41;-8.00;99.90
9437;DHT22;4757;59.334;18.034;2023-12-04T01:15:09;-8.00;99.90
9437;DHT22;4757;59.334;18.034;2023-12-04T01:17:36;-7.90;99.90
9437;DHT22;4757;59.334;18.034;2023-12-04T01:20:04;-7.90;99.90
9437;DHT22;4757;59.334;18.034;2023-12-04T01:22:31;-7.90;99.90
9437;DHT22;4757;59.334;18.034;2023-12-04T01:25:01;-7.90;99.90
9437;DHT22;4757;59.334;18.034;2023-12-04T01:27:30;-7.90;99.90
9437;DHT22;4757;59.334;18.034;2023-12-04T01:29:58;-7.90;99.90
9437;DHT22;4757;59.334;18.034;2023-12-04T01:32:25;-7.80;99.90
9437;DHT22;4757;59.334;18.034;2023-12-04T01:34:53;-7.90;99.90
9437;DHT22;4757;59.334;18.034;2023-12-04T01:37:20;-7.80;99.90
9437;DHT22;4757;59.334;18.034;2023-12-04T01:39:47;-7.80;99.90
9437;DHT22;4757;59.334;18.034;2023-12-04T01:42:14;-7.80;99.90
9437;DHT22;4757;59.334;18.034;2023-12-04T01:44:41;-7.90;99.90
9437;DHT22;4757;59.334;18.034;2023-12-04T01:47:09;-7.80;99.90
9437;DHT22;4757;59.334;18.034;2023-12-04T01:49:36;-7.80;99.90
9437;DHT22;4757;59.334;18.034;2023-12-04T01:52:04;-7.80;99.90
9437;DHT22;4757;59.334;18.034;2023-12-04T01:54:31;-7.80;99.90
9437;DHT22;4757;59.334;18.034;2023-12-04T01:56:59;-7.80;99.90
9437;DHT22;4757;59.334;18.034;2023-12-04T01:59:29;-7.90;99.90
9437;DHT22;4757;59.334;18.034;2023-12-04T02:01:57;-7.80;99.90
9437;DHT22;4757;59.334;18.034;2023-12-04T02:04:25;-7.80;99.90
9437;DHT22;4757;59.334;18.034;2023-12-04T02:06:52;-7.80;99.90
9437;DHT22;4757;59.334;18.034;2023-12-04T02:09:20;-7.90;99.90
9437;DHT22;4757;59.334;18.034;2023-12-04T02:11:47;-7.90;99.90
9437;DHT22;4757;59.334;18.034;2023-12-04T02:14:14;-7.90;99.90
9437;DHT22;4757;59.334;18.034;2023-12-04T02:16:42;-7.80;99.90
9437;DHT22;4757;59.334;18.034;2023-12-04T02:19:13;-7.90;99.90
9437;DHT22;4757;59.334;18.034;2023-12-04T02:21:41;-7.90;99.90
9437;DHT22;4757;59.334;18.034;2023-12-04T02:24:08;-7.80;99.90
9437;DHT22;4757;59.334;18.034;2023-12-04T02:26:48;-7.80;99.90
9437;DHT22;4757;59.334;18.034;2023-12-04T02:29:23;-7.80;99.90
9437;DHT22;4757;59.334;18.034;2023-12-04T02:31:55;-7.80;99.90
9437;DHT22;4757;59.334;18.034;2023-12-04T02:34:24;-8.00;99.90
9437;DHT22;4757;59.334;18.034;2023-12-04T02:36:52;-7.80;99.90
9437;DHT22;4757;59.334;18.034;2023-12-04T02:39:20;-7.90;99.90
9437;DHT22;4757;59.334;18.034;2023-12-04T02:41:49;-7.80;99.90
9437;DHT22;4757;59.334;18.034;2023-12-04T02:44:16;-7.80;99.90
9437;DHT22;4757;59.334;18.034;2023-12-04T02:46:43;-7.70;99.90
9437;DHT22;4757;59.334;18.034;2023-12-04T02:49:10;-7.80;99.90
9437;DHT22;4757;59.334;18.034;2023-12-04T02:51:40;-8.10;99.90
9437;DHT22;4757;59.334;18.034;2023-12-04T02:54:08;-8.00;99.90
9437;DHT22;4757;59.334;18.034;2023-12-04T02:56:35;-7.80;99.90
9437;DHT22;4757;59.334;18.034;2023-12-04T02:59:02;-7.90;99.90
9437;DHT22;4757;59.334;18.034;2023-12-04T03:01:29;-7.90;99.90
9437;DHT22;4757;59.334;18.034;2023-12-04T03:03:57;-8.20;99.90
9437;DHT22;4757;59.334;18.034;2023-12-04T03:06:24;-8.10;99.90
9437;DHT22;4757;59.334;18.034;2023-12-04T03:08:51;-8.20;99.90
9437;DHT22;4757;59.334;18.034;2023-12-04T03:11:19;-8.10;99.90
9437;DHT22;4757;59.334;18.034;2023-12-04T03:13:46;-8.10;99.90
9437;DHT22;4757;59.334;18.034;2023-12-04T03:16:17;-8.40;99.90
9437;DHT22;4757;59.334;18.034;2023-12-04T03:18:45;-8.20;99.90
9437;DHT22;4757;59.334;18.034;2023-12-04T03:21:13;-8.30;99.90
9437;DHT22;4757;59.334;18.034;2023-12-04T03:23:40;-8.30;99.90
9437;DHT22;4757;59.334;18.034;2023-12-04T03:26:07;-8.20;99.90
9437;DHT22;4757;59.334;18.034;2023-12-04T03:28:35;-8.10;99.90
9437;DHT22;4757;59.334;18.034;2023-12-04T03:31:02;-8.20;99.90
9437;DHT22;4757;59.334;18.034;2023-12-04T03:33:30;-8.20;99.90
9437;DHT22;4757;59.334;18.034;2023-12-04T03:35:59;-8.30;99.90
9437;DHT22;4757;59.334;18.034;2023-12-04T03:38:26;-8.40;99.90
9437;DHT22;4757;59.334;18.034;2023-12-04T03:40:53;-8.50;99.90
9437;DHT22;4757;59.334;18.034;2023-12-04T03:43:20;-8.50;99.90
9437;DHT22;4757;59.334;18.034;2023-12-04T03:45:47;-8.60;99.90
9437;DHT22;4757;59.334;18.034;2023-12-04T03:48:15;-8.60;99.90
9437;DHT22;4757;59.334;18.034;2023-12-04T03:50:42;-8.70;99.90
9437;DHT22;4757;59.334;18.034;2023-12-04T03:53:09;-8.70;99.90
9437;DHT22;4757;59.334;18.034;2023-12-04T03:55:37;-8.70;99.90
9437;DHT22;4757;59.334;18.034;2023-12-04T03:58:04;-8.60;99.90
9437;DHT22;4757;59.334;18.034;2023-12-04T04:00:31;-8.60;99.90
9437;DHT22;4757;59.334;18.034;2023-12-04T04:02:58;-8.50;99.90
9437;DHT22;4757;59.334;18.034;2023-12-04T04:05:26;-8.60;99.90
9437;DHT22;4757;59.334;18.034;2023-12-04T04:07:53;-8.70;99.90
9437;DHT22;4757;59.334;18.034;2023-12-04T04:10:20;-8.60;99.90
9437;DHT22;4757;59.334;18.034;2023-12-04T04:12:47;-8.60;99.90
9437;DHT22;4757;59.334;18.034;2023-12-04T04:15:14;-8.60;99.90
9437;DHT22;4757;59.334;18.034;2023-12-04T04:17:42;-8.60;99.90
9437;DHT22;4757;59.334;18.034;2023-12-04T04:20:09;-8.60;99.90
9437;DHT22;4757;59.334;18.034;2023-12-04T04:22:38;-8.50;99.90
9437;DHT22;4757;59.334;18.034;2023-12-04T04:25:08;-8.50;99.90
9437;DHT22;4757;59.334;18.034;2023-12-04T04:27:35;-8.40;99.90
9437;DHT22;4757;59.334;18.034;2023-12-04T04:30:03;-8.50;99.90
9437;DHT22;4757;59.334;18.034;2023-12-04T04:32:30;-8.30;99.90
9437;DHT22;4757;59.334;18.034;2023-12-04T04:34:58;-8.40;99.90
9437;DHT22;4757;59.334;18.034;2023-12-04T04:37:25;-8.30;99.90
9437;DHT22;4757;59.334;18.034;2023-12-04T04:39:53;-8.30;99.90
9437;DHT22;4757;59.334;18.034;2023-12-04T04:42:22;-8.30;99.90
9437;DHT22;4757;59.334;18.034;2023-12-04T04:44:49;-8.20;99.90
9437;DHT22;4757;59.334;18.034;2023-12-04T04:47:16;-8.10;99.90
9437;DHT22;4757;59.334;18.034;2023-12-04T04:49:43;-8.00;99.90
9437;DHT22;4757;59.334;18.034;2023-12-04T04:52:10;-8.10;99.90
9437;DHT22;4757;59.334;18.034;2023-12-04T04:54:38;-7.90;99.90
9437;DHT22;4757;59.334;18.034;2023-12-04T04:57:05;-7.90;99.90
9437;DHT22;4757;59.334;18.034;2023-12-04T04:59:32;-7.80;99.90
9437;DHT22;4757;59.334;18.034;2023-12-04T05:01:59;-7.80;99.90
9437;DHT22;4757;59.334;18.034;2023-12-04T05:04:26;-7.80;99.90
9437;DHT22;4757;59.334;18.034;2023-12-04T05:06:53;-7.80;99.90
9437;DHT22;4757;59.334;18.034;2023-12-04T05:09:21;-7.80;99.90
9437;DHT22;4757;59.334;18.034;2023-12-04T05:11:48;-7.80;99.90
9437;DHT22;4757;59.334;18.034;2023-12-04T05:14:15;-7.80;99.90
9437;DHT22;4757;59.334;18.034;2023-12-04T05:16:42;-7.80;99.90
9437;DHT22;4757;59.334;18.034;2023-12-04T05:19:09;-7.70;99.90
9437;DHT22;4757;59.334;18.034;2023-12-04T05:21:37;-7.70;99.90
9437;DHT22;4757;59.334;18.034;2023-12-04T05:24:04;-7.80;99.90
9437;DHT22;4757;59.334;18.034;2023-12-04T05:26:31;-7.80;99.90
9437;DHT22;4757;59.334;18.034;2023-12-04T05:28:58;-7.70;99.90
9437;DHT22;4757;59.334;18.034;2023-12-04T05:31:26;-7.70;99.90
9437;DHT22;4757;59.334;18.034;2023-12-04T05:33:53;-7.70;99.90
9437;DHT22;4757;59.334;18.034;2023-12-04T05:36:20;-7.70;99.90
9437;DHT22;4757;59.334;18.034;2023-12-04T05:38:48;-7.60;99.90
9437;DHT22;4757;59.334;18.034;2023-12-04T05:41:15;-7.60;99.90
9437;DHT22;4757;59.334;18.034;2023-12-04T05:43:42;-7.50;99.90
9437;DHT22;4757;59.334;18.034;2023-12-04T05:46:09;-7.50;99.90
9437;DHT22;4757;59.334;18.034;2023-12-04T05:48:36;-7.40;99.90
9437;DHT22;4757;59.334;18.034;2023-12-04T05:51:04;-7.50;99.90
9437;DHT22;4757;59.334;18.034;2023-12-04T05:53:31;-7.50;99.90
9437;DHT22;4757;59.334;18.034;2023-12-04T05:55:58;-7.50;99.90
9437;DHT22;4757;59.334;18.034;2023-12-04T05:58:25;-7.40;99.90
9437;DHT22;4757;59.334;18.034;2023-12-04T06:00:52;-7.30;99.90
9437;DHT22;4757;59.334;18.034;2023-12-04T06:03:19;-7.30;99.90
9437;DHT22;4757;59.334;18.034;2023-12-04T06:05:48;-7.30;99.90
9437;DHT22;4757;59.334;18.034;2023-12-04T06:08:16;-7.30;99.90
9437;DHT22;4757;59.334;18.034;2023-12-04T06:10:44;-7.30;99.90
9437;DHT22;4757;59.334;18.034;2023-12-04T06:13:11;-7.30;99.90
9437;DHT22;4757;59.334;18.034;2023-12-04T06:15:38;-7.30;99.90
9437;DHT22;4757;59.334;18.034;2023-12-04T06:18:05;-7.30;99.90
9437;DHT22;4757;59.334;18.034;2023-12-04T06:20:33;-7.20;99.90
9437;DHT22;4757;59.334;18.034;2023-12-04T06:23:01;-7.30;99.90
9437;DHT22;4757;59.334;18.034;2023-12-04T06:25:29;-7.30;99.90
9437;DHT22;4757;59.334;18.034;2023-12-04T06:27:56;-7.20;99.90
9437;DHT22;4757;59.334;18.034;2023-12-04T06:30:24;-7.20;99.90
9437;DHT22;4757;59.334;18.034;2023-12-04T06:32:51;-7.20;99.90
9437;DHT22;4757;59.334;18.034;2023-12-04T06:35:18;-7.20;99.90
9437;DHT22;4757;59.334;18.034;2023-12-04T06:37:48;-7.20;99.90
9437;DHT22;4757;59.334;18.034;2023-12-04T06:40:15;-7.20;99.90
9437;DHT22;4757;59.334;18.034;2023-12-04T06:42:44;-7.20;99.90
9437;DHT22;4757;59.334;18.034;2023-12-04T06:45:12;-7.10;99.90
9437;DHT22;4757;59.334;18.034;2023-12-04T06:47:40;-7.10;99.90
9437;DHT22;4757;59.334;18.034;2023-12-04T06:50:10;-7.20;99.90
9437;DHT22;4757;59.334;18.034;2023-12-04T06:52:37;-7.20;99.90
9437;DHT22;4757;59.334;18.034;2023-12-04T06:55:05;-7.30;99.90
9437;DHT22;4757;59.334;18.034;2023-12-04T06:57:32;-7.30;99.90
9437;DHT22;4757;59.334;18.034;2023-12-04T07:00:00;-7.20;99.90
9437;DHT22;4757;59.334;18.034;2023-12-04T07:02:27;-7.10;99.90
9437;DHT22;4757;59.334;18.034;2023-12-04T07:04:54;-7.00;99.90
9437;DHT22;4757;59.334;18.034;2023-12-04T07:07:22;-7.10;99.90
9437;DHT22;4757;59.334;18.034;2023-12-04T07:09:50;-7.10;99.90
9437;DHT22;4757;59.334;18.034;2023-12-04T07:12:17;-7.10;99.90
9437;DHT22;4757;59.334;18.034;2023-12-04T07:14:44;-7.10;99.90
9437;DHT22;4757;59.334;18.034;2023-12-04T07:17:11;-7.00;99.90
9437;DHT22;4757;59.334;18.034;2023-12-04T07:19:41;-6.90;99.90
9437;DHT22;4757;59.334;18.034;2023-12-04T07:22:08;-6.70;99.90
9437;DHT22;4757;59.334;18.034;2023-12-04T07:24:36;-7.00;99.90
9437;DHT22;4757;59.334;18.034;2023-12-04T07:27:04;-7.00;99.90
9437;DHT22;4757;59.334;18.034;2023-12-04T07:29:32;-6.90;99.90
9437;DHT22;4757;59.334;18.034;2023-12-04T07:31:59;-7.00;99.90
9437;DHT22;4757;59.334;18.034;2023-12-04T07:34:29;-7.00;99.90
9437;DHT22;4757;59.334;18.034;2023-12-04T07:36:56;-7.10;99.90
9437;DHT22;4757;59.334;18.034;2023-12-04T07:39:23;-7.10;99.90
9437;DHT22;4757;59.334;18.034;2023-12-04T07:41:50;-7.10;99.90
9437;DHT22;4757;59.334;18.034;2023-12-04T07:44:18;-7.10;99.90
9437;DHT22;4757;59.334;18.034;2023-12-04T07:46:53;-7.70;99.90
9437;DHT22;4757;59.334;18.034;2023-12-04T07:49:20;-7.00;99.90
9437;DHT22;4757;59.334;18.034;2023-12-04T07:51:47;-6.80;99.90
9437;DHT22;4757;59.334;18.034;2023-12-04T07:54:15;-6.80;99.90
9437;DHT22;4757;59.334;18.034;2023-12-04T07:56:43;-6.60;99.90
9437;DHT22;4757;59.334;18.034;2023-12-04T07:59:10;-7.00;99.90
9437;DHT22;4757;59.334;18.034;2023-12-04T08:01:37;-7.10;99.90
9437;DHT22;4757;59.334;18.034;2023-12-04T08:04:05;-7.20;99.90
9437;DHT22;4757;59.334;18.034;2023-12-04T08:06:32;-6.90;99.90
9437;DHT22;4757;59.334;18.034;2023-12-04T08:09:00;-7.10;99.90
9437;DHT22;4757;59.334;18.034;2023-12-04T08:11:27;-7.20;99.90
9437;DHT22;4757;59.334;18.034;2023-12-04T08:13:55;-7.20;99.90
9437;DHT22;4757;59.334;18.034;2023-12-04T08:16:22;-7.20;99.90
9437;DHT22;4757;59.334;18.034;2023-12-04T08:18:49;-7.20;99.90
9437;DHT22;4757;59.334;18.034;2023-12-04T08:21:17;-7.10;99.90
9437;DHT22;4757;59.334;18.034;2023-12-04T08:23:44;-7.00;99.90
9437;DHT22;4757;59.334;18.034;2023-12-04T08:26:11;-7.10;99.90
9437;DHT22;4757;59.334;18.034;2023-12-04T08:28:38;-6.90;99.90
9437;DHT22;4757;59.334;18.034;2023-12-04T08:31:08;-6.90;99.90
9437;DHT22;4757;59.334;18.034;2023-12-04T08:33:36;-7.10;99.90
9437;DHT22;4757;59.334;18.034;2023-12-04T08:36:04;-7.10;99.90
9437;DHT22;4757;59.334;18.034;2023-12-04T08:38:32;-6.80;99.90
9437;DHT22;4757;59.334;18.034;2023-12-04T08:40:59;-7.00;99.90
9437;DHT22;4757;59.334;18.034;2023-12-04T08:43:26;-7.10;99.90
9437;DHT22;4757;59.334;18.034;2023-12-04T08:45:54;-7.10;99.90
9437;DHT22;4757;59.334;18.034;2023-12-04T08:48:22;-7.00;99.90
9437;DHT22;4757;59.334;18.034;2023-12-04T08:50:49;-7.10;99.90
9437;DHT22;4757;59.334;18.034;2023-12-04T08:53:16;-6.90;99.90
9437;DHT22;4757;59.334;18.034;2023-12-04T08:55:43;-7.00;99.90
9437;DHT22;4757;59.334;18.034;2023-12-04T08:58:11;-7.00;99.90
9437;DHT22;4757;59.334;18.034;2023-12-04T09:00:39;-7.00;99.90
9437;DHT22;4757;59.334;18.034;2023-12-04T09:03:10;-6.90;99.90
9437;DHT22;4757;59.334;18.034;2023-12-04T09:05:48;-6.70;99.90
9437;DHT22;4757;59.334;18.034;2023-12-04T09:08:22;-6.90;99.90
9437;DHT22;4757;59.334;18.034;2023-12-04T09:11:03;-7.00;99.90
9437;DHT22;4757;59.334;18.034;2023-12-04T09:13:49;-7.10;99.90
9437;DHT22;4757;59.334;18.034;2023-12-04T09:16:16;-6.90;99.90
9437;DHT22;4757;59.334;18.034;2023-12-04T09:18:44;-6.90;99.90
9437;DHT22;4757;59.334;18.034;2023-12-04T09:21:11;-6.90;99.90
9437;DHT22;4757;59.334;18.034;2023-12-04T09:23:38;-6.90;99.90
9437;DHT22;4757;59.334;18.034;2023-12-04T09:26:06;-7.00;99.90
9437;DHT22;4757;59.334;18.034;2023-12-04T09:28:35;-6.90;99.90
9437;DHT22;4757;59.334;18.034;2023-12-04T09:31:02;-6.70;99.90
9437;DHT22;4757;59.334;18.034;2023-12-04T09:33:29;-6.70;99.90
9437;DHT22;4757;59.334;18.034;2023-12-04T09:35:57;-6.60;99.90
9437;DHT22;4757;59.334;18.034;2023-12-04T09:38:41;-6.70;99.90
9437;DHT22;4757;59.334;18.034;2023-12-04T09:41:10;-6.60;99.90
9437;DHT22;4757;59.334;18.034;2023-12-04T09:43:39;-6.50;99.90
9437;DHT22;4757;59.334;18.034;2023-12-04T09:46:09;-6.50;99.90
9437;DHT22;4757;59.334;18.034;2023-12-04T09:48:37;-6.40;99.90
9437;DHT22;4757;59.334;18.034;2023-12-04T09:51:06;-6.50;99.90
9437;DHT22;4757;59.334;18.034;2023-12-04T09:53:35;-6.40;99.90
9437;DHT22;4757;59.334;18.034;2023-12-04T09:56:07;-6.20;99.90
9437;DHT22;4757;59.334;18.034;2023-12-04T09:58:36;-6.00;99.90
9437;DHT22;4757;59.334;18.034;2023-12-04T10:01:06;-5.90;99.90
9437;DHT22;4757;59.334;18.034;2023-12-04T10:03:34;-5.20;99.90
9437;DHT22;4757;59.334;18.034;2023-12-04T10:06:02;-6.00;99.90
9437;DHT22;4757;59.334;18.034;2023-12-04T10:08:31;-6.30;99.90
9437;DHT22;4757;59.334;18.034;2023-12-04T10:10:58;-6.10;99.90
9437;DHT22;4757;59.334;18.034;2023-12-04T10:13:27;-5.90;99.90
9437;DHT22;4757;59.334;18.034;2023-12-04T10:16:14;-5.80;99.90
9437;DHT22;4757;59.334;18.034;2023-12-04T10:18:41;-5.70;99.90
9437;DHT22;4757;59.334;18.034;2023-12-04T10:21:09;-5.70;99.90
9437;DHT22;4757;59.334;18.034;2023-12-04T10:23:45;-5.70;99.90
9437;DHT22;4757;59.334;18.034;2023-12-04T10:26:16;-5.70;99.90
9437;DHT22;4757;59.334;18.034;2023-12-04T10:29:00;-5.80;99.90
9437;DHT22;4757;59.334;18.034;2023-12-04T10:31:34;-5.80;99.90
9437;DHT22;4757;59.334;18.034;2023-12-04T10:34:02;-6.00;99.90
9437;DHT22;4757;59.334;18.034;2023-12-04T10:36:32;-5.70;99.90
9437;DHT22;4757;59.334;18.034;2023-12-04T10:39:01;-5.80;99.90
9437;DHT22;4757;59.334;18.034;2023-12-04T10:41:32;-5.90;99.90
9437;DHT22;4757;59.334;18.034;2023-12-04T10:43:59;-5.80;99.90
9437;DHT22;4757;59.334;18.034;2023-12-04T10:46:36;-5.80;99.90
9437;DHT22;4757;59.334;18.034;2023-12-04T10:49:05;-5.70;99.90
9437;DHT22;4757;59.334;18.034;2023-12-04T10:51:34;-5.70;99.90
9437;DHT22;4757;59.334;18.034;2023-12-04T10:54:03;-5.60;99.90
9437;DHT22;4757;59.334;18.034;2023-12-04T10:56:40;-5.70;99.90
9437;DHT22;4757;59.334;18.034;2023-12-04T10:59:11;-5.70;99.90
9437;DHT22;4757;59.334;18.034;2023-12-04T11:01:44;-6.80;99.90
9437;DHT22;4757;59.334;18.034;2023-12-04T11:04:17;-5.70;99.90
9437;DHT22;4757;59.334;18.034;2023-12-04T11:06:52;-5.60;99.90
9437;DHT22;4757;59.334;18.034;2023-12-04T11:09:21;-5.50;99.90
9437;DHT22;4757;59.334;18.034;2023-12-04T11:11:57;-5.50;99.90
9437;DHT22;4757;59.334;18.034;2023-12-04T11:14:31;-5.40;99.90
9437;DHT22;4757;59.334;18.034;2023-12-04T11:17:04;-5.50;99.90
9437;DHT22;4757;59.334;18.034;2023-12-04T11:22:14;-5.50;99.90
9437;DHT22;4757;59.334;18.034;2023-12-04T11:24:42;-5.40;99.90
9437;DHT22;4757;59.334;18.034;2023-12-04T11:27:10;-5.60;99.90
9437;DHT22;4757;59.334;18.034;2023-12-04T11:29:38;-5.70;99.90
9437;DHT22;4757;59.334;18.034;2023-12-04T11:32:06;-5.80;99.90
9437;DHT22;4757;59.334;18.034;2023-12-04T11:34:35;-5.70;99.90
9437;DHT22;4757;59.334;18.034;2023-12-04T11:37:03;-5.60;99.90
9437;DHT22;4757;59.334;18.034;2023-12-04T11:39:34;-5.50;99.90
9437;DHT22;4757;59.334;18.034;2023-12-04T11:42:06;-5.40;99.90
9437;DHT22;4757;59.334;18.034;2023-12-04T11:44:35;-5.60;99.90
9437;DHT22;4757;59.334;18.034;2023-12-04T11:47:06;-5.50;99.90
9437;DHT22;4757;59.334;18.034;2023-12-04T11:49:33;-5.50;99.90
9437;DHT22;4757;59.334;18.034;2023-12-04T11:52:06;-5.30;99.90
9437;DHT22;4757;59.334;18.034;2023-12-04T11:55:06;-5.20;99.90
9437;DHT22;4757;59.334;18.034;2023-12-04T11:57:38;-5.30;99.90
9437;DHT22;4757;59.334;18.034;2023-12-04T12:03:01;-5.20;99.90
9437;DHT22;4757;59.334;18.034;2023-12-04T12:05:49;-5.30;99.90
9437;DHT22;4757;59.334;18.034;2023-12-04T12:08:23;-5.50;99.90
9437;DHT22;4757;59.334;18.034;2023-12-04T12:10:51;-5.40;99.90
9437;DHT22;4757;59.334;18.034;2023-12-04T12:13:20;-5.20;99.90
9437;DHT22;4757;59.334;18.034;2023-12-04T12:15:47;-4.90;99.90
9437;DHT22;4757;59.334;18.034;2023-12-04T12:18:21;-5.30;99.90
9437;DHT22;4757;59.334;18.034;2023-12-04T12:20:58;-5.10;99.90
9437;DHT22;4757;59.334;18.034;2023-12-04T12:23:28;-5.10;99.90
9437;DHT22;4757;59.334;18.034;2023-12-04T12:25:56;-5.00;99.90
9437;DHT22;4757;59.334;18.034;2023-12-04T12:28:23;-5.00;99.90
9437;DHT22;4757;59.334;18.034;2023-12-04T12:30:50;-5.10;99.90
9437;DHT22;4757;59.334;18.034;2023-12-04T12:33:20;-5.20;99.90
9437;DHT22;4757;59.334;18.034;2023-12-04T12:35:48;-5.10;99.90
9437;DHT22;4757;59.334;18.034;2023-12-04T12:38:28;-5.40;99.90
9437;DHT22;4757;59.334;18.034;2023-12-04T12:40:56;-5.40;99.90
9437;DHT22;4757;59.334;18.034;2023-12-04T12:43:24;-5.40;99.90
9437;DHT22;4757;59.334;18.034;2023-12-04T12:45:54;-5.20;99.90
9437;DHT22;4757;59.334;18.034;2023-12-04T12:48:21;-5.20;99.90
9437;DHT22;4757;59.334;18.034;2023-12-04T12:50:49;-5.30;99.90
9437;DHT22;4757;59.334;18.034;2023-12-04T12:53:17;-5.30;99.90
9437;DHT22;4757;59.334;18.034;2023-12-04T12:55:47;-5.40;99.90
9437;DHT22;4757;59.334;18.034;2023-12-04T12:58:15;-5.40;99.90
9437;DHT22;4757;59.334;18.034;2023-12-04T13:00:48;-5.50;99.90
9437;DHT22;4757;59.334;18.034;2023-12-04T13:03:16;-5.50;99.90
9437;DHT22;4757;59.334;18.034;2023-12-04T13:05:44;-5.30;99.90
9437;DHT22;4757;59.334;18.034;2023-12-04T13:08:14;-5.20;99.90
9437;DHT22;4757;59.334;18.034;2023-12-04T13:10:46;-5.30;99.90
9437;DHT22;4757;59.334;18.034;2023-12-04T13:13:16;-5.30;99.90
9437;DHT22;4757;59.334;18.034;2023-12-04T13:15:50;-5.10;99.90
9437;DHT22;4757;59.334;18.034;2023-12-04T13:18:20;-5.30;99.90
9437;DHT22;4757;59.334;18.034;2023-12-04T13:20:51;-5.40;99.90
9437;DHT22;4757;59.334;18.034;2023-12-04T13:23:19;-5.50;99.90
9437;DHT22;4757;59.334;18.034;2023-12-04T13:25:51;-5.60;99.90
9437;DHT22;4757;59.334;18.034;2023-12-04T13:28:28;-5.70;99.90
9437;DHT22;4757;59.334;18.034;2023-12-04T13:31:09;-5.50;99.90
9437;DHT22;4757;59.334;18.034;2023-12-04T13:33:43;-5.70;99.90
9437;DHT22;4757;59.334;18.034;2023-12-04T13:36:15;-5.70;99.90
9437;DHT22;4757;59.334;18.034;2023-12-04T13:38:43;-5.80;99.90
9437;DHT22;4757;59.334;18.034;2023-12-04T13:41:10;-5.80;99.90
9437;DHT22;4757;59.334;18.034;2023-12-04T13:44:12;-5.90;99.90
9437;DHT22;4757;59.334;18.034;2023-12-04T13:46:43;-5.90;99.90
9437;DHT22;4757;59.334;18.034;2023-12-04T13:49:10;-5.90;99.90
9437;DHT22;4757;59.334;18.034;2023-12-04T13:51:37;-5.80;99.90
9437;DHT22;4757;59.334;18.034;2023-12-04T13:54:07;-5.80;99.90
9437;DHT22;4757;59.334;18.034;2023-12-04T13:56:49;-5.80;99.90
9437;DHT22;4757;59.334;18.034;2023-12-04T13:59:24;-5.60;99.90
9437;DHT22;4757;59.334;18.034;2023-12-04T14:01:52;-5.60;99.90
9437;DHT22;4757;59.334;18.034;2023-12-04T14:04:23;-5.70;99.90
9437;DHT22;4757;59.334;18.034;2023-12-04T14:06:52;-5.70;99.90
9437;DHT22;4757;59.334;18.034;2023-12-04T14:09:20;-5.80;99.90
9437;DHT22;4757;59.334;18.034;2023-12-04T14:11:47;-5.90;99.90
9437;DHT22;4757;59.334;18.034;2023-12-04T14:14:15;-5.90;99.90
9437;DHT22;4757;59.334;18.034;2023-12-04T14:16:45;-5.90;99.90
9437;DHT22;4757;59.334;18.034;2023-12-04T14:19:14;-6.10;99.90
9437;DHT22;4757;59.334;18.034;2023-12-04T14:21:46;-5.80;99.90
9437;DHT22;4757;59.334;18.034;2023-12-04T14:24:15;-5.70;99.90
9437;DHT22;4757;59.334;18.034;2023-12-04T14:26:42;-5.70;99.90
9437;DHT22;4757;59.334;18.034;2023-12-04T14:29:09;-5.90;99.90
9437;DHT22;4757;59.334;18.034;2023-12-04T14:31:40;-5.90;99.90
9437;DHT22;4757;59.334;18.034;2023-12-04T14:34:07;-6.10;99.90
9437;DHT22;4757;59.334;18.034;2023-12-04T14:36:35;-5.80;99.90
9437;DHT22;4757;59.334;18.034;2023-12-04T14:39:05;-5.90;99.90
9437;DHT22;4757;59.334;18.034;2023-12-04T14:41:33;-5.90;99.90
9437;DHT22;4757;59.334;18.034;2023-12-04T14:44:01;-5.80;99.90
9437;DHT22;4757;59.334;18.034;2023-12-04T14:46:28;-5.80;99.90
9437;DHT22;4757;59.334;18.034;2023-12-04T14:48:55;-6.10;99.90
9437;DHT22;4757;59.334;18.034;2023-12-04T14:51:23;-6.40;99.90
9437;DHT22;4757;59.334;18.034;2023-12-04T14:53:51;-6.40;99.90
9437;DHT22;4757;59.334;18.034;2023-12-04T14:56:41;-6.40;99.90
9437;DHT22;4757;59.334;18.034;2023-12-04T14:59:27;-6.60;99.90
9437;DHT22;4757;59.334;18.034;2023-12-04T15:02:12;-6.60;99.90
9437;DHT22;4757;59.334;18.034;2023-12-04T15:05:06;-6.60;99.90
9437;DHT22;4757;59.334;18.034;2023-12-04T15:07:53;-6.40;99.90
9437;DHT22;4757;59.334;18.034;2023-12-04T15:10:32;-6.40;99.90
9437;DHT22;4757;59.334;18.034;2023-12-04T15:13:26;-6.30;99.90
9437;DHT22;4757;59.334;18.034;2023-12-04T15:16:11;-6.50;99.90
9437;DHT22;4757;59.334;18.034;2023-12-04T15:18:42;-6.50;99.90
9437;DHT22;4757;59.334;18.034;2023-12-04T15:21:11;-6.60;99.90
9437;DHT22;4757;59.334;18.034;2023-12-04T15:23:39;-6.70;99.90
9437;DHT22;4757;59.334;18.034;2023-12-04T15:26:06;-6.70;99.90
9437;DHT22;4757;59.334;18.034;2023-12-04T15:28:34;-6.40;99.90
9437;DHT22;4757;59.334;18.034;2023-12-04T15:31:02;-6.60;99.90
9437;DHT22;4757;59.334;18.034;2023-12-04T15:33:29;-6.60;99.90
9437;DHT22;4757;59.334;18.034;2023-12-04T15:35:57;-6.80;99.90
9437;DHT22;4757;59.334;18.034;2023-12-04T15:38:25;-6.80;99.90
9437;DHT22;4757;59.334;18.034;2023-12-04T15:40:53;-6.70;99.90
9437;DHT22;4757;59.334;18.034;2023-12-04T15:43:20;-6.90;99.90
9437;DHT22;4757;59.334;18.034;2023-12-04T15:45:47;-6.90;99.90
9437;DHT22;4757;59.334;18.034;2023-12-04T15:48:14;-6.80;99.90
9437;DHT22;4757;59.334;18.034;2023-12-04T15:50:42;-6.90;99.90
9437;DHT22;4757;59.334;18.034;2023-12-04T15:53:10;-7.10;99.90
9437;DHT22;4757;59.334;18.034;2023-12-04T15:55:38;-7.00;99.90
9437;DHT22;4757;59.334;18.034;2023-12-04T15:58:06;-7.00;99.90
9437;DHT22;4757;59.334;18.034;2023-12-04T16:00:33;-7.00;99.90
9437;DHT22;4757;59.334;18.034;2023-12-04T16:03:01;-7.00;99.90